createdAt,value
2023-04-23T00:01:28.428Z,14.95
2023-04-23T00:03:57.967Z,14.94
2023-04-23T00:06:24.942Z,14.93
2023-04-23T00:08:53.927Z,14.91
2023-04-23T00:11:20.434Z,14.88
2023-04-23T00:13:46.968Z,14.87
2023-04-23T00:16:14.148Z,14.85
2023-04-23T00:18:40.406Z,14.82
2023-04-23T00:21:06.886Z,14.81
2023-04-23T00:23:33.170Z,14.77
2023-04-23T00:25:59.488Z,14.77
2023-04-23T00:28:25.887Z,14.74
2023-04-23T00:30:52.340Z,14.71
2023-04-23T00:33:18.702Z,14.70
2023-04-23T00:35:45.129Z,14.66
2023-04-23T00:38:11.425Z,14.60
2023-04-23T00:40:37.721Z,14.56
2023-04-23T00:43:04.607Z,14.54
2023-04-23T00:45:30.985Z,14.48
2023-04-23T00:47:58.381Z,14.46
2023-04-23T00:50:25.132Z,14.42
2023-04-23T00:52:52.324Z,14.42
2023-04-23T00:55:18.639Z,14.40
2023-04-23T00:57:45.013Z,14.41
2023-04-23T01:00:12.180Z,14.39
2023-04-23T01:02:38.835Z,14.39
2023-04-23T01:05:08.955Z,14.39
2023-04-23T01:07:36.033Z,14.37
2023-04-23T01:10:04.125Z,14.37
2023-04-23T01:12:31.199Z,14.35
2023-04-23T01:14:57.853Z,14.33
2023-04-23T01:17:24.189Z,14.30
2023-04-23T01:19:50.508Z,14.29
2023-04-23T01:22:17.112Z,14.30
2023-04-23T01:24:43.692Z,14.30
2023-04-23T01:27:10.894Z,14.31
2023-04-23T01:29:38.393Z,14.32
2023-04-23T01:32:05.413Z,14.32
2023-04-23T01:34:32.019Z,14.32
2023-04-23T01:37:03.272Z,14.33
2023-04-23T01:39:29.827Z,14.31
2023-04-23T01:41:56.238Z,14.30
2023-04-23T01:44:23.242Z,14.30
2023-04-23T01:46:49.523Z,14.28
2023-04-23T01:49:15.851Z,14.27
2023-04-23T01:51:43.177Z,14.23
2023-04-23T01:54:09.497Z,14.15
2023-04-23T01:56:35.881Z,14.10
2023-04-23T01:59:02.384Z,14.05
2023-04-23T02:01:42.009Z,14.03
2023-04-23T02:04:08.985Z,14.03
2023-04-23T02:06:35.320Z,14.02
2023-04-23T02:09:01.720Z,14.03
2023-04-23T02:11:28.003Z,14.01
2023-04-23T02:13:54.415Z,14.00
2023-04-23T02:16:20.733Z,13.95
2023-04-23T02:18:47.128Z,13.93
2023-04-23T02:21:13.529Z,13.91
2023-04-23T02:23:39.780Z,13.92
2023-04-23T02:26:06.167Z,13.93
2023-04-23T02:28:32.467Z,13.93
2023-04-23T02:30:58.800Z,13.92
2023-04-23T02:33:25.148Z,13.91
2023-04-23T02:35:51.572Z,13.90
2023-04-23T02:38:17.964Z,13.89
2023-04-23T02:40:44.257Z,13.85
2023-04-23T02:43:10.554Z,13.83
2023-04-23T02:45:36.963Z,13.82
2023-04-23T02:48:03.380Z,13.81
2023-04-23T02:50:29.968Z,13.78
2023-04-23T02:52:56.262Z,13.76
2023-04-23T02:55:22.801Z,13.74
2023-04-23T02:57:49.137Z,13.70
2023-04-23T03:00:15.575Z,13.72
2023-04-23T03:02:42.188Z,13.71
2023-04-23T03:05:09.203Z,13.73
2023-04-23T03:07:35.506Z,13.73
2023-04-23T03:10:01.892Z,13.71
2023-04-23T03:12:28.306Z,13.71
2023-04-23T03:14:54.687Z,13.66
2023-04-23T03:17:20.993Z,13.62
2023-04-23T03:19:47.318Z,13.60
2023-04-23T03:22:13.598Z,13.57
2023-04-23T03:24:40.155Z,13.53
2023-04-23T03:27:06.728Z,13.47
2023-04-23T03:29:33.078Z,13.43
2023-04-23T03:31:59.395Z,13.41
2023-04-23T03:34:25.704Z,13.41
2023-04-23T03:36:51.983Z,13.41
2023-04-23T03:39:18.274Z,13.45
2023-04-23T03:41:44.689Z,13.42
2023-04-23T03:44:10.973Z,13.36
2023-04-23T03:46:37.322Z,13.33
2023-04-23T03:49:03.648Z,13.32
2023-04-23T03:51:30.038Z,13.35
2023-04-23T03:53:56.306Z,13.36
2023-04-23T03:56:22.907Z,13.27
2023-04-23T03:58:50.178Z,13.24
2023-04-23T04:01:16.536Z,13.21
2023-04-23T04:03:42.978Z,13.21
2023-04-23T04:06:09.736Z,13.16
2023-04-23T04:08:36.026Z,13.12
2023-04-23T04:11:02.496Z,13.09
2023-04-23T04:13:28.794Z,13.07
2023-04-23T04:15:55.150Z,13.03
2023-04-23T04:18:21.560Z,12.99
2023-04-23T04:20:47.925Z,12.95
2023-04-23T04:23:14.206Z,12.91
2023-04-23T04:25:40.489Z,12.92
2023-04-23T04:28:07.591Z,12.91
2023-04-23T04:30:34.157Z,12.90
2023-04-23T04:33:00.547Z,12.90
2023-04-23T04:35:26.982Z,12.94
2023-04-23T04:37:53.281Z,12.90
2023-04-23T04:40:19.684Z,12.91
2023-04-23T04:42:46.296Z,12.91
2023-04-23T04:45:13.188Z,12.94
2023-04-23T04:47:39.608Z,12.93
2023-04-23T04:50:06.627Z,12.93
2023-04-23T04:52:32.926Z,12.93
2023-04-23T04:54:59.230Z,12.95
2023-04-23T04:57:25.513Z,13.02
2023-04-23T04:59:51.901Z,13.03
2023-04-23T05:02:18.345Z,13.08
2023-04-23T05:04:44.802Z,13.06
2023-04-23T05:07:11.119Z,13.07
2023-04-23T05:09:37.495Z,13.07
2023-04-23T05:12:03.904Z,13.10
2023-04-23T05:14:30.194Z,13.17
2023-04-23T05:16:56.602Z,13.17
2023-04-23T05:19:22.958Z,13.19
2023-04-23T05:21:49.459Z,13.24
2023-04-23T05:24:15.884Z,13.26
2023-04-23T05:26:42.161Z,13.28
2023-04-23T05:29:08.470Z,13.31
2023-04-23T05:31:34.871Z,13.34
2023-04-23T05:34:01.184Z,13.35
2023-04-23T05:36:27.542Z,13.34
2023-04-23T05:38:56.567Z,13.33
2023-04-23T05:41:23.000Z,13.33
2023-04-23T05:43:49.392Z,13.34
2023-04-23T05:46:15.773Z,13.33
2023-04-23T05:48:42.225Z,13.32
2023-04-23T05:51:08.842Z,13.31
2023-04-23T05:53:35.171Z,13.30
2023-04-23T05:56:01.439Z,13.33
2023-04-23T05:58:27.736Z,13.37
2023-04-23T06:00:54.147Z,13.43
2023-04-23T06:03:20.718Z,13.46
2023-04-23T06:05:47.267Z,13.50
2023-04-23T06:08:13.614Z,13.52
2023-04-23T06:10:40.175Z,13.48
2023-04-23T06:13:06.553Z,13.48
2023-04-23T06:15:32.909Z,13.45
2023-04-23T06:17:59.312Z,13.45
2023-04-23T06:20:25.866Z,13.46
2023-04-23T06:22:52.176Z,13.45
2023-04-23T06:25:18.582Z,13.48
2023-04-23T06:27:44.849Z,13.51
2023-04-23T06:30:11.694Z,13.52
2023-04-23T06:32:38.024Z,13.51
2023-04-23T06:35:04.938Z,13.49
2023-04-23T06:37:31.366Z,13.48
2023-04-23T06:40:00.655Z,13.49
2023-04-23T06:42:27.033Z,13.54
2023-04-23T06:44:53.399Z,13.55
2023-04-23T06:47:19.827Z,13.59
2023-04-23T06:49:46.263Z,13.63
2023-04-23T06:52:12.662Z,13.65
2023-04-23T06:54:39.135Z,13.65
2023-04-23T06:57:05.656Z,13.66
2023-04-23T06:59:32.016Z,13.67
2023-04-23T07:01:58.269Z,13.68
2023-04-23T07:04:24.747Z,13.73
2023-04-23T07:06:51.083Z,13.77
2023-04-23T07:09:17.455Z,13.88
2023-04-23T07:11:43.812Z,14.01
2023-04-23T07:14:10.238Z,14.07
2023-04-23T07:16:36.605Z,14.16
2023-04-23T07:19:03.041Z,14.22
2023-04-23T07:21:29.681Z,14.29
2023-04-23T07:23:58.763Z,14.30
2023-04-23T07:26:25.303Z,14.29
2023-04-23T07:28:52.804Z,14.30
2023-04-23T07:31:19.504Z,14.40
2023-04-23T07:33:45.819Z,14.47
2023-04-23T07:36:12.116Z,14.49
2023-04-23T07:38:38.437Z,14.55
2023-04-23T07:41:04.838Z,14.63
2023-04-23T07:43:31.153Z,14.77
2023-04-23T07:45:58.138Z,14.93
2023-04-23T07:48:24.558Z,15.10
2023-04-23T07:50:50.940Z,15.32
2023-04-23T07:53:17.258Z,15.45
2023-04-23T07:55:43.549Z,15.54
2023-04-23T07:58:09.842Z,15.47
2023-04-23T08:00:36.247Z,15.43
2023-04-23T08:03:02.643Z,15.47
2023-04-23T08:05:29.088Z,15.44
2023-04-23T08:07:55.539Z,15.48
2023-04-23T08:10:21.813Z,15.45
2023-04-23T08:12:48.130Z,15.45
2023-04-23T08:15:14.422Z,15.59
2023-04-23T08:17:40.746Z,15.69
2023-04-23T08:20:07.746Z,15.73
2023-04-23T08:22:34.209Z,15.74
2023-04-23T08:25:00.530Z,15.75
2023-04-23T08:27:26.811Z,15.81
2023-04-23T08:29:53.194Z,15.77
2023-04-23T08:32:19.575Z,15.76
2023-04-23T08:34:45.991Z,15.86
2023-04-23T08:37:23.078Z,15.95
2023-04-23T08:39:53.875Z,16.11
2023-04-23T08:42:38.276Z,16.33
2023-04-23T08:45:05.260Z,16.43
2023-04-23T08:47:32.377Z,16.44
2023-04-23T08:49:59.659Z,16.49
2023-04-23T08:52:29.081Z,16.45
2023-04-23T08:55:01.116Z,16.23
2023-04-23T08:57:27.851Z,16.22
2023-04-23T08:59:55.342Z,16.03
2023-04-23T09:02:23.010Z,16.04
2023-04-23T09:04:51.335Z,16.05
2023-04-23T09:07:18.915Z,16.01
2023-04-23T09:09:45.509Z,16.04
2023-04-23T09:12:11.798Z,15.90
2023-04-23T09:14:38.092Z,15.78
2023-04-23T09:17:04.562Z,15.45
2023-04-23T09:19:31.845Z,15.23
2023-04-23T09:21:58.802Z,15.08
2023-04-23T09:24:25.575Z,15.26
2023-04-23T09:26:52.771Z,15.20
2023-04-23T09:29:19.787Z,15.24
2023-04-23T09:31:47.046Z,15.51
2023-04-23T09:34:16.409Z,15.82
2023-04-23T09:36:45.242Z,16.23
2023-04-23T09:39:12.913Z,16.56
2023-04-23T09:41:40.459Z,16.80
2023-04-23T09:44:07.227Z,17.09
2023-04-23T09:46:35.621Z,17.34
2023-04-23T09:49:05.714Z,17.51
2023-04-23T09:51:32.170Z,17.68
2023-04-23T09:53:58.664Z,17.76
2023-04-23T09:56:25.074Z,17.86
2023-04-23T09:58:51.342Z,17.79
2023-04-23T10:01:17.785Z,17.82
2023-04-23T10:03:44.726Z,17.84
2023-04-23T10:06:25.905Z,17.84
2023-04-23T10:09:00.886Z,17.77
2023-04-23T10:11:28.058Z,17.77
2023-04-23T10:13:55.245Z,17.70
2023-04-23T10:16:25.414Z,17.85
2023-04-23T10:19:00.739Z,17.97
2023-04-23T10:21:39.422Z,18.15
2023-04-23T10:24:14.387Z,18.36
2023-04-23T10:26:42.444Z,18.58
2023-04-23T10:29:14.528Z,18.75
2023-04-23T10:31:42.325Z,18.84
2023-04-23T10:34:10.563Z,18.88
2023-04-23T10:36:38.316Z,18.90
2023-04-23T10:39:05.359Z,19.04
2023-04-23T10:41:40.470Z,19.20
2023-04-23T10:44:12.164Z,19.27
2023-04-23T10:46:39.398Z,19.25
2023-04-23T10:49:16.013Z,19.27
2023-04-23T10:52:18.778Z,19.31
2023-04-23T10:54:56.510Z,19.32
2023-04-23T10:57:22.940Z,19.26
2023-04-23T10:59:53.969Z,19.20
2023-04-23T11:02:23.122Z,19.00
2023-04-23T11:04:57.384Z,18.84
2023-04-23T11:07:31.921Z,18.75
2023-04-23T11:10:12.837Z,18.67
2023-04-23T11:12:40.024Z,18.59
2023-04-23T11:15:13.888Z,18.67
2023-04-23T11:17:46.395Z,18.90
2023-04-23T11:20:20.189Z,19.00
2023-04-23T11:22:48.603Z,18.97
2023-04-23T11:25:28.420Z,19.11
2023-04-23T11:27:56.865Z,19.10
2023-04-23T11:30:25.252Z,19.18
2023-04-23T11:32:54.181Z,19.22
2023-04-23T11:35:23.206Z,19.11
2023-04-23T11:37:49.895Z,19.09
2023-04-23T11:40:17.872Z,19.12
2023-04-23T11:42:45.908Z,19.01
2023-04-23T11:45:19.977Z,19.08
2023-04-23T11:47:48.316Z,19.29
2023-04-23T11:50:23.132Z,19.52
2023-04-23T11:52:49.982Z,19.57
2023-04-23T11:55:16.972Z,19.58
2023-04-23T11:57:44.123Z,19.68
2023-04-23T12:00:14.848Z,19.83
2023-04-23T12:02:56.961Z,19.87
2023-04-23T12:05:31.527Z,20.12
2023-04-23T12:08:15.364Z,20.18
2023-04-23T12:11:02.912Z,20.09
2023-04-23T12:13:31.372Z,20.15
2023-04-23T12:16:00.360Z,20.24
2023-04-23T12:18:34.477Z,20.21
2023-04-23T12:21:11.495Z,20.18
2023-04-23T12:23:38.895Z,20.12
2023-04-23T12:26:10.689Z,20.20
2023-04-23T12:28:52.263Z,20.41
2023-04-23T12:31:23.059Z,20.64
2023-04-23T12:34:09.439Z,20.66
2023-04-23T12:36:37.305Z,20.67
2023-04-23T12:39:23.164Z,20.64
2023-04-23T12:42:00.551Z,20.58
2023-04-23T12:44:27.165Z,20.71
2023-04-23T12:47:02.135Z,20.83
2023-04-23T12:49:29.330Z,20.72
2023-04-23T12:51:56.810Z,20.61
2023-04-23T12:54:27.830Z,20.62
2023-04-23T12:56:54.146Z,20.72
2023-04-23T12:59:20.524Z,20.74
2023-04-23T13:01:46.874Z,20.82
2023-04-23T13:04:13.338Z,20.86
2023-04-23T13:06:40.339Z,20.74
2023-04-23T13:09:06.556Z,20.45
2023-04-23T13:11:32.844Z,20.30
2023-04-23T13:13:59.166Z,20.34
2023-04-23T13:16:25.591Z,20.47
2023-04-23T13:18:51.940Z,20.69
2023-04-23T13:21:19.003Z,20.57
2023-04-23T13:23:45.543Z,20.51
2023-04-23T13:26:11.902Z,20.74
2023-04-23T13:28:38.411Z,20.79
2023-04-23T13:31:05.003Z,20.90
2023-04-23T13:33:31.299Z,21.01
2023-04-23T13:35:58.917Z,21.14
2023-04-23T13:38:25.864Z,21.13
2023-04-23T13:40:52.299Z,21.14
2023-04-23T13:43:19.363Z,21.10
2023-04-23T13:45:46.700Z,21.18
2023-04-23T13:48:15.003Z,21.17
2023-04-23T13:50:42.380Z,21.10
2023-04-23T13:53:09.328Z,20.95
2023-04-23T13:55:35.613Z,20.93
2023-04-23T13:58:03.148Z,20.96
2023-04-23T14:00:29.701Z,21.02
2023-04-23T14:02:56.390Z,21.06
2023-04-23T14:05:22.895Z,21.10
2023-04-23T14:07:50.415Z,20.95
2023-04-23T14:10:16.815Z,20.82
2023-04-23T14:12:44.677Z,20.91
2023-04-23T14:15:11.299Z,20.97
2023-04-23T14:17:38.274Z,20.99
2023-04-23T14:20:05.095Z,20.97
2023-04-23T14:22:31.639Z,21.03
2023-04-23T14:25:03.011Z,21.23
2023-04-23T14:27:39.011Z,21.34
2023-04-23T14:30:06.107Z,21.54
2023-04-23T14:32:32.486Z,21.63
2023-04-23T14:34:58.820Z,21.44
2023-04-23T14:37:25.148Z,21.36
2023-04-23T14:39:51.508Z,21.26
2023-04-23T14:42:17.780Z,21.13
2023-04-23T14:44:44.052Z,21.20
2023-04-23T14:47:10.351Z,21.21
2023-04-23T14:49:36.620Z,21.27
2023-04-23T14:52:04.408Z,21.17
2023-04-23T14:54:30.739Z,21.05
2023-04-23T14:56:57.018Z,20.95
2023-04-23T14:59:23.752Z,20.80
2023-04-23T15:01:50.148Z,20.79
2023-04-23T15:04:16.699Z,20.82
2023-04-23T15:06:43.048Z,20.83
2023-04-23T15:09:09.336Z,20.89
2023-04-23T15:11:35.732Z,20.93
2023-04-23T15:14:06.306Z,21.07
2023-04-23T15:19:05.900Z,21.48
2023-04-23T15:21:32.802Z,21.48
2023-04-23T15:23:59.073Z,21.35
2023-04-23T15:26:25.440Z,21.00
2023-04-23T15:28:51.822Z,20.96
2023-04-23T15:31:18.130Z,20.93
2023-04-23T15:33:44.486Z,20.92
2023-04-23T15:36:10.830Z,20.83
2023-04-23T15:38:37.137Z,20.88
2023-04-23T15:41:03.571Z,20.89
2023-04-23T15:43:29.896Z,20.84
2023-04-23T15:45:56.200Z,20.84
2023-04-23T15:48:22.503Z,20.98
2023-04-23T15:50:48.888Z,21.18
2023-04-23T15:53:15.230Z,21.35
2023-04-23T15:55:41.571Z,21.42
2023-04-23T15:58:07.858Z,21.29
2023-04-23T16:00:34.336Z,21.17
2023-04-23T16:03:01.505Z,21.03
2023-04-23T16:05:28.036Z,20.91
2023-04-23T16:07:54.311Z,20.70
2023-04-23T16:10:20.811Z,20.60
2023-04-23T16:12:47.142Z,20.55
2023-04-23T16:15:13.441Z,20.71
2023-04-23T16:17:39.894Z,20.89
2023-04-23T16:20:07.100Z,21.00
2023-04-23T16:22:33.728Z,21.03
2023-04-23T16:25:00.031Z,21.07
2023-04-23T16:27:26.483Z,21.05
2023-04-23T16:29:53.146Z,21.05
2023-04-23T16:32:19.514Z,20.99
2023-04-23T16:34:46.020Z,21.08
2023-04-23T16:37:13.034Z,21.03
2023-04-23T16:39:39.356Z,20.76
2023-04-23T16:42:05.727Z,20.52
2023-04-23T16:44:32.028Z,20.37
2023-04-23T16:46:58.540Z,20.25
2023-04-23T16:49:24.857Z,20.09
2023-04-23T16:51:51.323Z,19.88
2023-04-23T16:54:18.046Z,19.65
2023-04-23T16:56:44.334Z,19.47
2023-04-23T16:59:11.251Z,19.33
2023-04-23T17:01:37.708Z,19.18
2023-04-23T17:04:04.098Z,19.09
2023-04-23T17:06:32.155Z,18.97
2023-04-23T17:09:02.597Z,18.77
2023-04-23T17:11:30.416Z,18.52
2023-04-23T17:13:57.552Z,18.34
2023-04-23T17:16:24.452Z,18.22
2023-04-23T17:18:50.798Z,17.90
2023-04-23T17:21:17.213Z,17.68
2023-04-23T17:23:43.645Z,17.47
2023-04-23T17:26:09.947Z,17.27
2023-04-23T17:28:36.259Z,17.15
2023-04-23T17:31:03.550Z,17.07
2023-04-23T17:33:30.021Z,17.00
2023-04-23T17:35:56.449Z,16.80
2023-04-23T17:38:22.935Z,16.60
2023-04-23T17:40:50.257Z,16.39
2023-04-23T17:43:17.557Z,16.28
2023-04-23T17:45:44.383Z,16.17
2023-04-23T17:48:11.655Z,16.04
2023-04-23T17:50:38.094Z,15.98
2023-04-23T17:53:04.452Z,15.82
2023-04-23T17:55:30.918Z,15.75
2023-04-23T17:57:57.220Z,15.67
2023-04-23T18:00:23.563Z,15.57
2023-04-23T18:02:50.048Z,15.54
2023-04-23T18:05:17.069Z,15.45
2023-04-23T18:07:44.401Z,15.36
2023-04-23T18:10:11.559Z,15.30
2023-04-23T18:12:38.806Z,15.30
2023-04-23T18:15:05.346Z,15.19
2023-04-23T18:17:31.690Z,15.17
2023-04-23T18:19:57.993Z,15.14
2023-04-23T18:22:24.663Z,15.07
2023-04-23T18:24:51.177Z,15.06
2023-04-23T18:27:17.567Z,15.05
2023-04-23T18:29:44.356Z,15.07
2023-04-23T18:32:15.883Z,15.03
2023-04-23T18:34:47.799Z,15.03
2023-04-23T18:37:32.173Z,15.07
2023-04-23T18:39:59.111Z,15.10
2023-04-23T18:42:28.323Z,15.14
2023-04-23T18:44:55.625Z,15.23
2023-04-23T18:47:25.408Z,15.24
2023-04-23T18:50:02.229Z,15.21
2023-04-23T18:52:28.601Z,15.13
2023-04-23T18:54:54.917Z,15.02
2023-04-23T18:57:21.429Z,14.80
2023-04-23T18:59:47.741Z,14.37
2023-04-23T19:02:21.422Z,13.86
2023-04-23T19:04:55.215Z,13.31
2023-04-23T19:07:21.725Z,13.13
2023-04-23T19:09:48.031Z,12.81
2023-04-23T19:12:14.342Z,12.67
2023-04-23T19:14:40.633Z,12.55
2023-04-23T19:17:06.960Z,12.55
2023-04-23T19:19:33.330Z,12.43
2023-04-23T19:21:59.628Z,12.39
2023-04-23T19:24:26.138Z,12.41
2023-04-23T19:26:52.468Z,12.46
2023-04-23T19:29:18.746Z,12.48
2023-04-23T19:31:45.161Z,12.45
2023-04-23T19:34:11.527Z,12.43
2023-04-23T19:36:37.808Z,12.41
2023-04-23T19:39:04.224Z,12.35
2023-04-23T19:41:30.554Z,12.19
2023-04-23T19:43:56.847Z,12.06
2023-04-23T19:46:23.196Z,12.02
2023-04-23T19:48:49.682Z,11.99
2023-04-23T19:51:17.666Z,11.93
2023-04-23T19:53:43.960Z,11.93
2023-04-23T19:56:10.241Z,11.91
2023-04-23T19:58:36.608Z,11.88
2023-04-23T20:01:02.935Z,11.85
2023-04-23T20:03:29.387Z,11.78
2023-04-23T20:05:55.814Z,11.79
2023-04-23T20:08:22.133Z,11.70
2023-04-23T20:10:48.530Z,11.66
2023-04-23T20:13:14.810Z,11.62
2023-04-23T20:15:41.110Z,11.56
2023-04-23T20:18:07.559Z,11.48
2023-04-23T20:20:34.029Z,11.46
2023-04-23T20:23:00.367Z,11.43
2023-04-23T20:25:26.640Z,11.41
2023-04-23T20:27:55.472Z,11.38
2023-04-23T20:30:21.839Z,11.36
2023-04-23T20:32:48.235Z,11.34
2023-04-23T20:35:14.659Z,11.30
2023-04-23T20:37:40.994Z,11.25
2023-04-23T20:40:08.041Z,11.13
2023-04-23T20:42:34.432Z,11.10
2023-04-23T20:45:00.736Z,11.01
2023-04-23T20:47:27.230Z,10.93
2023-04-23T20:49:53.569Z,10.86
2023-04-23T20:52:19.856Z,10.82
2023-04-23T20:54:46.165Z,10.81
2023-04-23T20:57:12.462Z,10.78
2023-04-23T20:59:38.773Z,10.77
2023-04-23T21:02:05.147Z,10.78
2023-04-23T21:04:31.655Z,10.77
2023-04-23T21:06:58.201Z,10.76
2023-04-23T21:09:24.550Z,10.74
2023-04-23T21:11:50.864Z,10.74
2023-04-23T21:14:17.330Z,10.78
2023-04-23T21:16:43.634Z,10.80
2023-04-23T21:19:09.920Z,10.82
2023-04-23T21:21:36.316Z,10.85
2023-04-23T21:24:02.666Z,10.86
2023-04-23T21:26:30.418Z,10.86
2023-04-23T21:28:56.951Z,10.88
2023-04-23T21:31:35.269Z,10.89
2023-04-23T21:34:01.576Z,10.89
2023-04-23T21:36:27.858Z,10.87
2023-04-23T21:38:54.449Z,10.84
2023-04-23T21:41:20.871Z,10.83
2023-04-23T21:43:47.239Z,10.83
2023-04-23T21:46:13.581Z,10.82
2023-04-23T21:48:39.907Z,10.82
2023-04-23T21:51:06.322Z,10.82
2023-04-23T21:53:32.614Z,10.82
2023-04-23T21:55:59.000Z,10.84
2023-04-23T21:58:25.347Z,10.86
2023-04-23T22:00:51.804Z,10.87
2023-04-23T22:03:26.861Z,10.88
2023-04-23T22:06:03.321Z,10.89
2023-04-23T22:08:31.257Z,10.92
2023-04-23T22:10:57.538Z,10.93
2023-04-23T22:13:23.921Z,10.94
2023-04-23T22:15:50.218Z,10.90
2023-04-23T22:18:16.544Z,10.91
2023-04-23T22:20:42.944Z,10.93
2023-04-23T22:23:09.225Z,10.96
2023-04-23T22:25:35.584Z,10.93
2023-04-23T22:28:02.111Z,10.88
2023-04-23T22:30:28.469Z,10.85
2023-04-23T22:32:54.767Z,10.85
2023-04-23T22:35:21.348Z,10.82
2023-04-23T22:37:47.708Z,10.85
2023-04-23T22:40:14.079Z,10.89
2023-04-23T22:42:40.508Z,10.86
2023-04-23T22:45:07.347Z,10.88
2023-04-23T22:47:34.094Z,10.88
2023-04-23T22:50:00.458Z,10.91
2023-04-23T22:52:26.782Z,10.95
2023-04-23T22:54:53.042Z,10.96
2023-04-23T22:57:19.322Z,10.96
2023-04-23T22:59:45.671Z,10.99
2023-04-23T23:02:11.969Z,11.00
2023-04-23T23:04:38.406Z,10.99
2023-04-23T23:07:08.548Z,11.03
2023-04-23T23:09:34.838Z,11.04
2023-04-23T23:12:02.471Z,11.04
2023-04-23T23:14:29.414Z,11.06
2023-04-23T23:16:56.462Z,11.08
2023-04-23T23:19:23.628Z,11.09
2023-04-23T23:21:50.212Z,11.12
2023-04-23T23:24:16.510Z,11.14
2023-04-23T23:26:42.784Z,11.14
2023-04-23T23:29:09.172Z,11.13
2023-04-23T23:31:35.503Z,11.15
2023-04-23T23:34:01.929Z,11.13
2023-04-23T23:36:28.219Z,11.14
2023-04-23T23:38:54.605Z,11.11
2023-04-23T23:41:20.922Z,11.11
2023-04-23T23:43:47.282Z,11.10
2023-04-23T23:46:13.578Z,11.12
2023-04-23T23:48:39.997Z,11.15
2023-04-23T23:51:06.333Z,11.12
2023-04-23T23:53:32.626Z,11.12
2023-04-23T23:55:59.018Z,11.11
2023-04-23T23:58:25.364Z,11.06
